<?xml version="1.0" encoding="UTF-8" standalone="no" ?>
<gpx xmlns="http://www.topografix.com/GPX/1/1" xmlns:xsi="http://www.w3.org/2001/XMLSchema-instance" xsi:schemaLocation="http://www.topografix.com/GPX/1/1 http://www.topografix.com/GPX/1/1/gpx.xsd" version="1.1" creator="VisuGPX - https://www.visugpx.com">
  <metadata>
    <name>Décrassage cassissien</name>
    <desc><![CDATA[(Très) petit tour de décrassage dans le beaujolais!]]></desc>
  </metadata>
  <trk>
    <name><![CDATA[Tour Chessy]]></name>
    <desc><![CDATA[19 févr. 2011 09:21:45]]></desc>
    <trkseg>
      <trkpt lat="45.89184" lon="4.61661">
        <ele>305</ele>
        <time>2011-02-19T08:22:27Z</time>
      </trkpt>
      <trkpt lat="45.89202" lon="4.61668">
        <ele>305</ele>
        <time>2011-02-19T08:22:32Z</time>
      </trkpt>
      <trkpt lat="45.8921" lon="4.61673">
        <ele>305</ele>
        <time>2011-02-19T08:22:34Z</time>
      </trkpt>
      <trkpt lat="45.89218" lon="4.61685">
        <ele>305</ele>
        <time>2011-02-19T08:22:37Z</time>
      </trkpt>
      <trkpt lat="45.89225" lon="4.61696">
        <ele>304</ele>
        <time>2011-02-19T08:22:40Z</time>
      </trkpt>
      <trkpt lat="45.89233" lon="4.61704">
        <ele>304</ele>
        <time>2011-02-19T08:22:43Z</time>
      </trkpt>
      <trkpt lat="45.89238" lon="4.61711">
        <ele>304</ele>
        <time>2011-02-19T08:22:45Z</time>
      </trkpt>
      <trkpt lat="45.89245" lon="4.61724">
        <ele>304</ele>
        <time>2011-02-19T08:22:48Z</time>
      </trkpt>
      <trkpt lat="45.89249" lon="4.61729">
        <ele>304</ele>
        <time>2011-02-19T08:22:51Z</time>
      </trkpt>
      <trkpt lat="45.89256" lon="4.61723">
        <ele>304</ele>
        <time>2011-02-19T08:22:54Z</time>
      </trkpt>
      <trkpt lat="45.8926" lon="4.6172">
        <ele>304</ele>
        <time>2011-02-19T08:22:56Z</time>
      </trkpt>
      <trkpt lat="45.89265" lon="4.61713">
        <ele>304</ele>
        <time>2011-02-19T08:22:59Z</time>
      </trkpt>
      <trkpt lat="45.89273" lon="4.61706">
        <ele>304</ele>
        <time>2011-02-19T08:23:03Z</time>
      </trkpt>
      <trkpt lat="45.89283" lon="4.617">
        <ele>304</ele>
        <time>2011-02-19T08:23:07Z</time>
      </trkpt>
      <trkpt lat="45.89289" lon="4.61695">
        <ele>304</ele>
        <time>2011-02-19T08:23:10Z</time>
      </trkpt>
      <trkpt lat="45.89298" lon="4.61688">
        <ele>304</ele>
        <time>2011-02-19T08:23:14Z</time>
      </trkpt>
      <trkpt lat="45.89307" lon="4.6168">
        <ele>304</ele>
        <time>2011-02-19T08:23:18Z</time>
      </trkpt>
      <trkpt lat="45.89317" lon="4.61667">
        <ele>305</ele>
        <time>2011-02-19T08:23:23Z</time>
      </trkpt>
      <trkpt lat="45.89322" lon="4.6166">
        <ele>305</ele>
        <time>2011-02-19T08:23:26Z</time>
      </trkpt>
      <trkpt lat="45.89328" lon="4.61653">
        <ele>305</ele>
        <time>2011-02-19T08:23:29Z</time>
      </trkpt>
      <trkpt lat="45.89335" lon="4.61642">
        <ele>305</ele>
        <time>2011-02-19T08:23:33Z</time>
      </trkpt>
      <trkpt lat="45.8934" lon="4.61634">
        <ele>305</ele>
        <time>2011-02-19T08:23:36Z</time>
      </trkpt>
      <trkpt lat="45.89345" lon="4.61623">
        <ele>305</ele>
        <time>2011-02-19T08:23:40Z</time>
      </trkpt>
      <trkpt lat="45.8935" lon="4.61613">
        <ele>305</ele>
        <time>2011-02-19T08:23:46Z</time>
      </trkpt>
      <trkpt lat="45.89381" lon="4.6158">
        <ele>304</ele>
        <time>2011-02-19T08:24:09Z</time>
      </trkpt>
      <trkpt lat="45.89401" lon="4.61562">
        <ele>305</ele>
        <time>2011-02-19T08:24:23Z</time>
      </trkpt>
      <trkpt lat="45.89419" lon="4.61544">
        <ele>305</ele>
        <time>2011-02-19T08:24:37Z</time>
      </trkpt>
      <trkpt lat="45.89425" lon="4.61535">
        <ele>305</ele>
        <time>2011-02-19T08:24:43Z</time>
      </trkpt>
      <trkpt lat="45.89433" lon="4.61525">
        <ele>305</ele>
        <time>2011-02-19T08:24:53Z</time>
      </trkpt>
      <trkpt lat="45.89476" lon="4.61484">
        <ele>306</ele>
        <time>2011-02-19T08:25:23Z</time>
      </trkpt>
      <trkpt lat="45.89497" lon="4.61458">
        <ele>306</ele>
        <time>2011-02-19T08:25:34Z</time>
      </trkpt>
      <trkpt lat="45.89506" lon="4.61448">
        <ele>306</ele>
        <time>2011-02-19T08:25:38Z</time>
      </trkpt>
      <trkpt lat="45.89515" lon="4.61439">
        <ele>307</ele>
        <time>2011-02-19T08:25:42Z</time>
      </trkpt>
      <trkpt lat="45.89524" lon="4.61431">
        <ele>307</ele>
        <time>2011-02-19T08:25:46Z</time>
      </trkpt>
      <trkpt lat="45.8953" lon="4.61426">
        <ele>308</ele>
        <time>2011-02-19T08:25:55Z</time>
      </trkpt>
      <trkpt lat="45.89538" lon="4.61419">
        <ele>308</ele>
        <time>2011-02-19T08:26:01Z</time>
      </trkpt>
      <trkpt lat="45.89548" lon="4.61408">
        <ele>309</ele>
        <time>2011-02-19T08:26:08Z</time>
      </trkpt>
      <trkpt lat="45.89554" lon="4.61402">
        <ele>309</ele>
        <time>2011-02-19T08:26:11Z</time>
      </trkpt>
      <trkpt lat="45.89562" lon="4.61395">
        <ele>309</ele>
        <time>2011-02-19T08:26:15Z</time>
      </trkpt>
      <trkpt lat="45.89567" lon="4.61389">
        <ele>309</ele>
        <time>2011-02-19T08:26:18Z</time>
      </trkpt>
      <trkpt lat="45.8958" lon="4.61379">
        <ele>309</ele>
        <time>2011-02-19T08:26:23Z</time>
      </trkpt>
      <trkpt lat="45.89593" lon="4.61366">
        <ele>309</ele>
        <time>2011-02-19T08:26:29Z</time>
      </trkpt>
      <trkpt lat="45.89602" lon="4.61354">
        <ele>310</ele>
        <time>2011-02-19T08:26:34Z</time>
      </trkpt>
      <trkpt lat="45.89625" lon="4.61316">
        <ele>313</ele>
        <time>2011-02-19T08:26:48Z</time>
      </trkpt>
      <trkpt lat="45.89634" lon="4.613">
        <ele>312</ele>
        <time>2011-02-19T08:26:53Z</time>
      </trkpt>
      <trkpt lat="45.89642" lon="4.61286">
        <ele>313</ele>
        <time>2011-02-19T08:26:57Z</time>
      </trkpt>
      <trkpt lat="45.89652" lon="4.61272">
        <ele>313</ele>
        <time>2011-02-19T08:27:01Z</time>
      </trkpt>
      <trkpt lat="45.89663" lon="4.61257">
        <ele>314</ele>
        <time>2011-02-19T08:27:05Z</time>
      </trkpt>
      <trkpt lat="45.89677" lon="4.61236">
        <ele>315</ele>
        <time>2011-02-19T08:27:10Z</time>
      </trkpt>
      <trkpt lat="45.89694" lon="4.61216">
        <ele>315</ele>
        <time>2011-02-19T08:27:15Z</time>
      </trkpt>
      <trkpt lat="45.89704" lon="4.61206">
        <ele>315</ele>
        <time>2011-02-19T08:27:18Z</time>
      </trkpt>
      <trkpt lat="45.89719" lon="4.61192">
        <ele>315</ele>
        <time>2011-02-19T08:27:22Z</time>
      </trkpt>
      <trkpt lat="45.8974" lon="4.61173">
        <ele>316</ele>
        <time>2011-02-19T08:27:27Z</time>
      </trkpt>
      <trkpt lat="45.89761" lon="4.61156">
        <ele>317</ele>
        <time>2011-02-19T08:27:32Z</time>
      </trkpt>
      <trkpt lat="45.89779" lon="4.61142">
        <ele>317</ele>
        <time>2011-02-19T08:27:37Z</time>
      </trkpt>
      <trkpt lat="45.89793" lon="4.61133">
        <ele>317</ele>
        <time>2011-02-19T08:27:41Z</time>
      </trkpt>
      <trkpt lat="45.8981" lon="4.61122">
        <ele>318</ele>
        <time>2011-02-19T08:27:46Z</time>
      </trkpt>
      <trkpt lat="45.89824" lon="4.61113">
        <ele>318</ele>
        <time>2011-02-19T08:27:50Z</time>
      </trkpt>
      <trkpt lat="45.8984" lon="4.61103">
        <ele>318</ele>
        <time>2011-02-19T08:27:55Z</time>
      </trkpt>
      <trkpt lat="45.89861" lon="4.61088">
        <ele>318</ele>
        <time>2011-02-19T08:28:01Z</time>
      </trkpt>
      <trkpt lat="45.89874" lon="4.61077">
        <ele>318</ele>
        <time>2011-02-19T08:28:05Z</time>
      </trkpt>
      <trkpt lat="45.89885" lon="4.61067">
        <ele>318</ele>
        <time>2011-02-19T08:28:09Z</time>
      </trkpt>
      <trkpt lat="45.89894" lon="4.61056">
        <ele>319</ele>
        <time>2011-02-19T08:28:13Z</time>
      </trkpt>
      <trkpt lat="45.89904" lon="4.61043">
        <ele>320</ele>
        <time>2011-02-19T08:28:18Z</time>
      </trkpt>
      <trkpt lat="45.89908" lon="4.61034">
        <ele>321</ele>
        <time>2011-02-19T08:28:21Z</time>
      </trkpt>
      <trkpt lat="45.89913" lon="4.61022">
        <ele>322</ele>
        <time>2011-02-19T08:28:25Z</time>
      </trkpt>
      <trkpt lat="45.89918" lon="4.61012">
        <ele>322</ele>
        <time>2011-02-19T08:28:28Z</time>
      </trkpt>
      <trkpt lat="45.8993" lon="4.60995">
        <ele>321</ele>
        <time>2011-02-19T08:28:33Z</time>
      </trkpt>
      <trkpt lat="45.89942" lon="4.60978">
        <ele>321</ele>
        <time>2011-02-19T08:28:38Z</time>
      </trkpt>
      <trkpt lat="45.89951" lon="4.60966">
        <ele>322</ele>
        <time>2011-02-19T08:28:42Z</time>
      </trkpt>
      <trkpt lat="45.8996" lon="4.60954">
        <ele>323</ele>
        <time>2011-02-19T08:28:46Z</time>
      </trkpt>
      <trkpt lat="45.89968" lon="4.60942">
        <ele>324</ele>
        <time>2011-02-19T08:28:50Z</time>
      </trkpt>
      <trkpt lat="45.89976" lon="4.6093">
        <ele>325</ele>
        <time>2011-02-19T08:28:54Z</time>
      </trkpt>
      <trkpt lat="45.89983" lon="4.60919">
        <ele>325</ele>
        <time>2011-02-19T08:28:58Z</time>
      </trkpt>
      <trkpt lat="45.89993" lon="4.60903">
        <ele>326</ele>
        <time>2011-02-19T08:29:03Z</time>
      </trkpt>
      <trkpt lat="45.90001" lon="4.60891">
        <ele>328</ele>
        <time>2011-02-19T08:29:07Z</time>
      </trkpt>
      <trkpt lat="45.90013" lon="4.6087">
        <ele>330</ele>
        <time>2011-02-19T08:29:13Z</time>
      </trkpt>
      <trkpt lat="45.90024" lon="4.60851">
        <ele>331</ele>
        <time>2011-02-19T08:29:18Z</time>
      </trkpt>
      <trkpt lat="45.90031" lon="4.60835">
        <ele>330</ele>
        <time>2011-02-19T08:29:22Z</time>
      </trkpt>
      <trkpt lat="45.90034" lon="4.60823">
        <ele>330</ele>
        <time>2011-02-19T08:29:25Z</time>
      </trkpt>
      <trkpt lat="45.90036" lon="4.60815">
        <ele>330</ele>
        <time>2011-02-19T08:29:27Z</time>
      </trkpt>
      <trkpt lat="45.90035" lon="4.60816">
        <ele>330</ele>
        <time>2011-02-19T08:29:28Z</time>
      </trkpt>
      <trkpt lat="45.90031" lon="4.60797">
        <ele>330</ele>
        <time>2011-02-19T08:29:35Z</time>
      </trkpt>
      <trkpt lat="45.90022" lon="4.6078">
        <ele>329</ele>
        <time>2011-02-19T08:29:43Z</time>
      </trkpt>
      <trkpt lat="45.90007" lon="4.60781">
        <ele>329</ele>
        <time>2011-02-19T08:29:47Z</time>
      </trkpt>
      <trkpt lat="45.89991" lon="4.60784">
        <ele>330</ele>
        <time>2011-02-19T08:29:51Z</time>
      </trkpt>
      <trkpt lat="45.89975" lon="4.60787">
        <ele>330</ele>
        <time>2011-02-19T08:29:55Z</time>
      </trkpt>
      <trkpt lat="45.89964" lon="4.60787">
        <ele>330</ele>
        <time>2011-02-19T08:29:58Z</time>
      </trkpt>
      <trkpt lat="45.89949" lon="4.60786">
        <ele>331</ele>
        <time>2011-02-19T08:30:02Z</time>
      </trkpt>
      <trkpt lat="45.89937" lon="4.60786">
        <ele>331</ele>
        <time>2011-02-19T08:30:05Z</time>
      </trkpt>
      <trkpt lat="45.89917" lon="4.60788">
        <ele>333</ele>
        <time>2011-02-19T08:30:10Z</time>
      </trkpt>
      <trkpt lat="45.89897" lon="4.60791">
        <ele>335</ele>
        <time>2011-02-19T08:30:14Z</time>
      </trkpt>
      <trkpt lat="45.89881" lon="4.60794">
        <ele>334</ele>
        <time>2011-02-19T08:30:17Z</time>
      </trkpt>
      <trkpt lat="45.89856" lon="4.60797">
        <ele>333</ele>
        <time>2011-02-19T08:30:22Z</time>
      </trkpt>
      <trkpt lat="45.89842" lon="4.60799">
        <ele>332</ele>
        <time>2011-02-19T08:30:25Z</time>
      </trkpt>
      <trkpt lat="45.89823" lon="4.60805">
        <ele>333</ele>
        <time>2011-02-19T08:30:29Z</time>
      </trkpt>
      <trkpt lat="45.8981" lon="4.60809">
        <ele>333</ele>
        <time>2011-02-19T08:30:32Z</time>
      </trkpt>
      <trkpt lat="45.89799" lon="4.60812">
        <ele>335</ele>
        <time>2011-02-19T08:30:35Z</time>
      </trkpt>
      <trkpt lat="45.89792" lon="4.60816">
        <ele>336</ele>
        <time>2011-02-19T08:30:38Z</time>
      </trkpt>
      <trkpt lat="45.89785" lon="4.6082">
        <ele>336</ele>
        <time>2011-02-19T08:30:41Z</time>
      </trkpt>
      <trkpt lat="45.89773" lon="4.60819">
        <ele>335</ele>
        <time>2011-02-19T08:30:46Z</time>
      </trkpt>
      <trkpt lat="45.8976" lon="4.60818">
        <ele>334</ele>
        <time>2011-02-19T08:30:50Z</time>
      </trkpt>
      <trkpt lat="45.89743" lon="4.60818">
        <ele>334</ele>
        <time>2011-02-19T08:30:54Z</time>
      </trkpt>
      <trkpt lat="45.89726" lon="4.60821">
        <ele>334</ele>
        <time>2011-02-19T08:30:58Z</time>
      </trkpt>
      <trkpt lat="45.89705" lon="4.60825">
        <ele>333</ele>
        <time>2011-02-19T08:31:03Z</time>
      </trkpt>
      <trkpt lat="45.89679" lon="4.60831">
        <ele>334</ele>
        <time>2011-02-19T08:31:09Z</time>
      </trkpt>
      <trkpt lat="45.89667" lon="4.60835">
        <ele>334</ele>
        <time>2011-02-19T08:31:12Z</time>
      </trkpt>
      <trkpt lat="45.89649" lon="4.60841">
        <ele>335</ele>
        <time>2011-02-19T08:31:16Z</time>
      </trkpt>
      <trkpt lat="45.89635" lon="4.60844">
        <ele>335</ele>
        <time>2011-02-19T08:31:19Z</time>
      </trkpt>
      <trkpt lat="45.89614" lon="4.60847">
        <ele>335</ele>
        <time>2011-02-19T08:31:23Z</time>
      </trkpt>
      <trkpt lat="45.89585" lon="4.60853">
        <ele>336</ele>
        <time>2011-02-19T08:31:29Z</time>
      </trkpt>
      <trkpt lat="45.89567" lon="4.60858">
        <ele>335</ele>
        <time>2011-02-19T08:31:33Z</time>
      </trkpt>
      <trkpt lat="45.89553" lon="4.6086">
        <ele>335</ele>
        <time>2011-02-19T08:31:36Z</time>
      </trkpt>
      <trkpt lat="45.89539" lon="4.60861">
        <ele>334</ele>
        <time>2011-02-19T08:31:39Z</time>
      </trkpt>
      <trkpt lat="45.89525" lon="4.60859">
        <ele>333</ele>
        <time>2011-02-19T08:31:42Z</time>
      </trkpt>
      <trkpt lat="45.89505" lon="4.60862">
        <ele>332</ele>
        <time>2011-02-19T08:31:46Z</time>
      </trkpt>
      <trkpt lat="45.89481" lon="4.60868">
        <ele>332</ele>
        <time>2011-02-19T08:31:50Z</time>
      </trkpt>
      <trkpt lat="45.89461" lon="4.6087">
        <ele>331</ele>
        <time>2011-02-19T08:31:53Z</time>
      </trkpt>
      <trkpt lat="45.89436" lon="4.6087">
        <ele>329</ele>
        <time>2011-02-19T08:31:57Z</time>
      </trkpt>
      <trkpt lat="45.89412" lon="4.60871">
        <ele>330</ele>
        <time>2011-02-19T08:32:01Z</time>
      </trkpt>
      <trkpt lat="45.89401" lon="4.60872">
        <ele>330</ele>
        <time>2011-02-19T08:32:03Z</time>
      </trkpt>
      <trkpt lat="45.89386" lon="4.60878">
        <ele>330</ele>
        <time>2011-02-19T08:32:06Z</time>
      </trkpt>
      <trkpt lat="45.89371" lon="4.60885">
        <ele>330</ele>
        <time>2011-02-19T08:32:09Z</time>
      </trkpt>
      <trkpt lat="45.89342" lon="4.60896">
        <ele>331</ele>
        <time>2011-02-19T08:32:15Z</time>
      </trkpt>
      <trkpt lat="45.89322" lon="4.60901">
        <ele>331</ele>
        <time>2011-02-19T08:32:19Z</time>
      </trkpt>
      <trkpt lat="45.89305" lon="4.60906">
        <ele>331</ele>
        <time>2011-02-19T08:32:22Z</time>
      </trkpt>
      <trkpt lat="45.89276" lon="4.60923">
        <ele>330</ele>
        <time>2011-02-19T08:32:27Z</time>
      </trkpt>
      <trkpt lat="45.89264" lon="4.6093">
        <ele>326</ele>
        <time>2011-02-19T08:32:30Z</time>
      </trkpt>
      <trkpt lat="45.89266" lon="4.60908">
        <ele>321</ele>
        <time>2011-02-19T08:32:39Z</time>
      </trkpt>
      <trkpt lat="45.89261" lon="4.60843">
        <ele>317</ele>
        <time>2011-02-19T08:33:01Z</time>
      </trkpt>
      <trkpt lat="45.89239" lon="4.60834">
        <ele>313</ele>
        <time>2011-02-19T08:33:12Z</time>
      </trkpt>
      <trkpt lat="45.89226" lon="4.6084">
        <ele>311</ele>
        <time>2011-02-19T08:33:16Z</time>
      </trkpt>
      <trkpt lat="45.89184" lon="4.60835">
        <ele>306</ele>
        <time>2011-02-19T08:33:25Z</time>
      </trkpt>
      <trkpt lat="45.89169" lon="4.6084">
        <ele>305</ele>
        <time>2011-02-19T08:33:28Z</time>
      </trkpt>
      <trkpt lat="45.89167" lon="4.60842">
        <ele>305</ele>
        <time>2011-02-19T08:33:29Z</time>
      </trkpt>
      <trkpt lat="45.89149" lon="4.60841">
        <ele>304</ele>
        <time>2011-02-19T08:33:32Z</time>
      </trkpt>
      <trkpt lat="45.89133" lon="4.60838">
        <ele>303</ele>
        <time>2011-02-19T08:33:35Z</time>
      </trkpt>
      <trkpt lat="45.89126" lon="4.60837">
        <ele>304</ele>
        <time>2011-02-19T08:33:37Z</time>
      </trkpt>
      <trkpt lat="45.89118" lon="4.60832">
        <ele>304</ele>
        <time>2011-02-19T08:33:39Z</time>
      </trkpt>
      <trkpt lat="45.89103" lon="4.60797">
        <ele>304</ele>
        <time>2011-02-19T08:33:44Z</time>
      </trkpt>
      <trkpt lat="45.8908" lon="4.60724">
        <ele>300</ele>
        <time>2011-02-19T08:33:57Z</time>
      </trkpt>
      <trkpt lat="45.89068" lon="4.60701">
        <ele>297</ele>
        <time>2011-02-19T08:34:03Z</time>
      </trkpt>
      <trkpt lat="45.89008" lon="4.60647">
        <ele>295</ele>
        <time>2011-02-19T08:34:21Z</time>
      </trkpt>
      <trkpt lat="45.88998" lon="4.60643">
        <ele>294</ele>
        <time>2011-02-19T08:34:25Z</time>
      </trkpt>
      <trkpt lat="45.88987" lon="4.60636">
        <ele>294</ele>
        <time>2011-02-19T08:34:28Z</time>
      </trkpt>
      <trkpt lat="45.88969" lon="4.60628">
        <ele>293</ele>
        <time>2011-02-19T08:34:32Z</time>
      </trkpt>
      <trkpt lat="45.88954" lon="4.60624">
        <ele>292</ele>
        <time>2011-02-19T08:34:35Z</time>
      </trkpt>
      <trkpt lat="45.88936" lon="4.60622">
        <ele>291</ele>
        <time>2011-02-19T08:34:38Z</time>
      </trkpt>
      <trkpt lat="45.88923" lon="4.60624">
        <ele>291</ele>
        <time>2011-02-19T08:34:40Z</time>
      </trkpt>
      <trkpt lat="45.88912" lon="4.60635">
        <ele>289</ele>
        <time>2011-02-19T08:34:43Z</time>
      </trkpt>
      <trkpt lat="45.88895" lon="4.60643">
        <ele>288</ele>
        <time>2011-02-19T08:34:47Z</time>
      </trkpt>
      <trkpt lat="45.88872" lon="4.60655">
        <ele>287</ele>
        <time>2011-02-19T08:34:53Z</time>
      </trkpt>
      <trkpt lat="45.88857" lon="4.60663">
        <ele>287</ele>
        <time>2011-02-19T08:34:57Z</time>
      </trkpt>
      <trkpt lat="45.88842" lon="4.60673">
        <ele>285</ele>
        <time>2011-02-19T08:35:01Z</time>
      </trkpt>
      <trkpt lat="45.88831" lon="4.60679">
        <ele>286</ele>
        <time>2011-02-19T08:35:04Z</time>
      </trkpt>
      <trkpt lat="45.88815" lon="4.6069">
        <ele>285</ele>
        <time>2011-02-19T08:35:09Z</time>
      </trkpt>
      <trkpt lat="45.88806" lon="4.60696">
        <ele>285</ele>
        <time>2011-02-19T08:35:12Z</time>
      </trkpt>
      <trkpt lat="45.88795" lon="4.60702">
        <ele>284</ele>
        <time>2011-02-19T08:35:16Z</time>
      </trkpt>
      <trkpt lat="45.88783" lon="4.60708">
        <ele>283</ele>
        <time>2011-02-19T08:35:21Z</time>
      </trkpt>
      <trkpt lat="45.88778" lon="4.6071">
        <ele>284</ele>
        <time>2011-02-19T08:35:24Z</time>
      </trkpt>
      <trkpt lat="45.8876" lon="4.60723">
        <ele>287</ele>
        <time>2011-02-19T08:35:41Z</time>
      </trkpt>
      <trkpt lat="45.88732" lon="4.6073">
        <ele>287</ele>
        <time>2011-02-19T08:36:01Z</time>
      </trkpt>
      <trkpt lat="45.88703" lon="4.60709">
        <ele>285</ele>
        <time>2011-02-19T08:36:17Z</time>
      </trkpt>
      <trkpt lat="45.88681" lon="4.60677">
        <ele>283</ele>
        <time>2011-02-19T08:36:32Z</time>
      </trkpt>
      <trkpt lat="45.88668" lon="4.6065">
        <ele>283</ele>
        <time>2011-02-19T08:36:48Z</time>
      </trkpt>
      <trkpt lat="45.88645" lon="4.60613">
        <ele>287</ele>
        <time>2011-02-19T08:37:05Z</time>
      </trkpt>
      <trkpt lat="45.88628" lon="4.60584">
        <ele>290</ele>
        <time>2011-02-19T08:37:17Z</time>
      </trkpt>
      <trkpt lat="45.88613" lon="4.60565">
        <ele>290</ele>
        <time>2011-02-19T08:37:32Z</time>
      </trkpt>
      <trkpt lat="45.88595" lon="4.60514">
        <ele>291</ele>
        <time>2011-02-19T08:37:54Z</time>
      </trkpt>
      <trkpt lat="45.88581" lon="4.60489">
        <ele>295</ele>
        <time>2011-02-19T08:38:04Z</time>
      </trkpt>
      <trkpt lat="45.88558" lon="4.60451">
        <ele>296</ele>
        <time>2011-02-19T08:38:22Z</time>
      </trkpt>
      <trkpt lat="45.8855" lon="4.60439">
        <ele>297</ele>
        <time>2011-02-19T08:38:29Z</time>
      </trkpt>
      <trkpt lat="45.88539" lon="4.60412">
        <ele>297</ele>
        <time>2011-02-19T08:38:43Z</time>
      </trkpt>
      <trkpt lat="45.88534" lon="4.60394">
        <ele>297</ele>
        <time>2011-02-19T08:38:50Z</time>
      </trkpt>
      <trkpt lat="45.88527" lon="4.60378">
        <ele>298</ele>
        <time>2011-02-19T08:38:54Z</time>
      </trkpt>
      <trkpt lat="45.88502" lon="4.60347">
        <ele>299</ele>
        <time>2011-02-19T08:39:07Z</time>
      </trkpt>
      <trkpt lat="45.88496" lon="4.60343">
        <ele>300</ele>
        <time>2011-02-19T08:39:10Z</time>
      </trkpt>
      <trkpt lat="45.88488" lon="4.60339">
        <ele>302</ele>
        <time>2011-02-19T08:39:14Z</time>
      </trkpt>
      <trkpt lat="45.88476" lon="4.60338">
        <ele>304</ele>
        <time>2011-02-19T08:39:21Z</time>
      </trkpt>
      <trkpt lat="45.88467" lon="4.60341">
        <ele>306</ele>
        <time>2011-02-19T08:39:28Z</time>
      </trkpt>
      <trkpt lat="45.8846" lon="4.60345">
        <ele>308</ele>
        <time>2011-02-19T08:39:32Z</time>
      </trkpt>
      <trkpt lat="45.88452" lon="4.60351">
        <ele>310</ele>
        <time>2011-02-19T08:39:36Z</time>
      </trkpt>
      <trkpt lat="45.88431" lon="4.60364">
        <ele>312</ele>
        <time>2011-02-19T08:39:45Z</time>
      </trkpt>
      <trkpt lat="45.8842" lon="4.60374">
        <ele>316</ele>
        <time>2011-02-19T08:39:51Z</time>
      </trkpt>
      <trkpt lat="45.88414" lon="4.60378">
        <ele>317</ele>
        <time>2011-02-19T08:39:54Z</time>
      </trkpt>
      <trkpt lat="45.8841" lon="4.60382">
        <ele>319</ele>
        <time>2011-02-19T08:39:57Z</time>
      </trkpt>
      <trkpt lat="45.88415" lon="4.604">
        <ele>319</ele>
        <time>2011-02-19T08:40:09Z</time>
      </trkpt>
      <trkpt lat="45.88436" lon="4.60424">
        <ele>317</ele>
        <time>2011-02-19T08:40:21Z</time>
      </trkpt>
      <trkpt lat="45.88448" lon="4.60446">
        <ele>316</ele>
        <time>2011-02-19T08:40:28Z</time>
      </trkpt>
      <trkpt lat="45.88461" lon="4.60472">
        <ele>315</ele>
        <time>2011-02-19T08:40:34Z</time>
      </trkpt>
      <trkpt lat="45.88469" lon="4.60489">
        <ele>316</ele>
        <time>2011-02-19T08:40:38Z</time>
      </trkpt>
      <trkpt lat="45.88477" lon="4.60507">
        <ele>316</ele>
        <time>2011-02-19T08:40:42Z</time>
      </trkpt>
      <trkpt lat="45.88485" lon="4.60523">
        <ele>315</ele>
        <time>2011-02-19T08:40:46Z</time>
      </trkpt>
      <trkpt lat="45.88494" lon="4.60548">
        <ele>314</ele>
        <time>2011-02-19T08:40:51Z</time>
      </trkpt>
      <trkpt lat="45.88508" lon="4.60577">
        <ele>314</ele>
        <time>2011-02-19T08:40:56Z</time>
      </trkpt>
      <trkpt lat="45.8852" lon="4.60606">
        <ele>313</ele>
        <time>2011-02-19T08:41:00Z</time>
      </trkpt>
      <trkpt lat="45.88534" lon="4.60639">
        <ele>312</ele>
        <time>2011-02-19T08:41:05Z</time>
      </trkpt>
      <trkpt lat="45.88545" lon="4.60664">
        <ele>313</ele>
        <time>2011-02-19T08:41:09Z</time>
      </trkpt>
      <trkpt lat="45.88553" lon="4.60683">
        <ele>313</ele>
        <time>2011-02-19T08:41:12Z</time>
      </trkpt>
      <trkpt lat="45.88565" lon="4.60711">
        <ele>314</ele>
        <time>2011-02-19T08:41:17Z</time>
      </trkpt>
      <trkpt lat="45.88571" lon="4.60728">
        <ele>313</ele>
        <time>2011-02-19T08:41:20Z</time>
      </trkpt>
      <trkpt lat="45.88578" lon="4.60758">
        <ele>313</ele>
        <time>2011-02-19T08:41:25Z</time>
      </trkpt>
      <trkpt lat="45.88581" lon="4.60777">
        <ele>313</ele>
        <time>2011-02-19T08:41:28Z</time>
      </trkpt>
      <trkpt lat="45.88583" lon="4.60796">
        <ele>312</ele>
        <time>2011-02-19T08:41:31Z</time>
      </trkpt>
      <trkpt lat="45.88582" lon="4.6082">
        <ele>311</ele>
        <time>2011-02-19T08:41:35Z</time>
      </trkpt>
      <trkpt lat="45.88581" lon="4.60829">
        <ele>312</ele>
        <time>2011-02-19T08:41:37Z</time>
      </trkpt>
      <trkpt lat="45.88571" lon="4.60842">
        <ele>311</ele>
        <time>2011-02-19T08:41:40Z</time>
      </trkpt>
      <trkpt lat="45.88563" lon="4.60849">
        <ele>311</ele>
        <time>2011-02-19T08:41:42Z</time>
      </trkpt>
      <trkpt lat="45.88554" lon="4.60855">
        <ele>311</ele>
        <time>2011-02-19T08:41:44Z</time>
      </trkpt>
      <trkpt lat="45.88539" lon="4.60871">
        <ele>313</ele>
        <time>2011-02-19T08:41:48Z</time>
      </trkpt>
      <trkpt lat="45.88529" lon="4.60881">
        <ele>314</ele>
        <time>2011-02-19T08:41:51Z</time>
      </trkpt>
      <trkpt lat="45.88512" lon="4.60895">
        <ele>315</ele>
        <time>2011-02-19T08:41:56Z</time>
      </trkpt>
      <trkpt lat="45.88498" lon="4.60907">
        <ele>316</ele>
        <time>2011-02-19T08:42:00Z</time>
      </trkpt>
      <trkpt lat="45.88485" lon="4.60919">
        <ele>317</ele>
        <time>2011-02-19T08:42:04Z</time>
      </trkpt>
      <trkpt lat="45.88469" lon="4.60932">
        <ele>317</ele>
        <time>2011-02-19T08:42:09Z</time>
      </trkpt>
      <trkpt lat="45.88457" lon="4.60941">
        <ele>317</ele>
        <time>2011-02-19T08:42:13Z</time>
      </trkpt>
      <trkpt lat="45.88445" lon="4.6095">
        <ele>317</ele>
        <time>2011-02-19T08:42:17Z</time>
      </trkpt>
      <trkpt lat="45.88429" lon="4.60959">
        <ele>317</ele>
        <time>2011-02-19T08:42:22Z</time>
      </trkpt>
      <trkpt lat="45.88417" lon="4.60967">
        <ele>318</ele>
        <time>2011-02-19T08:42:26Z</time>
      </trkpt>
      <trkpt lat="45.88402" lon="4.60979">
        <ele>318</ele>
        <time>2011-02-19T08:42:31Z</time>
      </trkpt>
      <trkpt lat="45.88387" lon="4.60993">
        <ele>318</ele>
        <time>2011-02-19T08:42:36Z</time>
      </trkpt>
      <trkpt lat="45.88378" lon="4.61003">
        <ele>318</ele>
        <time>2011-02-19T08:42:39Z</time>
      </trkpt>
      <trkpt lat="45.88373" lon="4.61012">
        <ele>319</ele>
        <time>2011-02-19T08:42:41Z</time>
      </trkpt>
      <trkpt lat="45.88368" lon="4.6103">
        <ele>320</ele>
        <time>2011-02-19T08:42:44Z</time>
      </trkpt>
      <trkpt lat="45.88367" lon="4.61046">
        <ele>320</ele>
        <time>2011-02-19T08:42:47Z</time>
      </trkpt>
      <trkpt lat="45.88366" lon="4.6105">
        <ele>320</ele>
        <time>2011-02-19T08:42:48Z</time>
      </trkpt>
      <trkpt lat="45.88374" lon="4.61057">
        <ele>320</ele>
        <time>2011-02-19T08:42:50Z</time>
      </trkpt>
      <trkpt lat="45.88376" lon="4.61061">
        <ele>320</ele>
        <time>2011-02-19T08:42:51Z</time>
      </trkpt>
      <trkpt lat="45.8839" lon="4.61066">
        <ele>320</ele>
        <time>2011-02-19T08:42:54Z</time>
      </trkpt>
      <trkpt lat="45.88403" lon="4.61074">
        <ele>319</ele>
        <time>2011-02-19T08:42:57Z</time>
      </trkpt>
      <trkpt lat="45.88416" lon="4.61089">
        <ele>318</ele>
        <time>2011-02-19T08:43:00Z</time>
      </trkpt>
      <trkpt lat="45.88423" lon="4.61102">
        <ele>317</ele>
        <time>2011-02-19T08:43:03Z</time>
      </trkpt>
      <trkpt lat="45.8843" lon="4.61121">
        <ele>314</ele>
        <time>2011-02-19T08:43:07Z</time>
      </trkpt>
      <trkpt lat="45.88439" lon="4.61141">
        <ele>312</ele>
        <time>2011-02-19T08:43:11Z</time>
      </trkpt>
      <trkpt lat="45.88451" lon="4.61163">
        <ele>310</ele>
        <time>2011-02-19T08:43:15Z</time>
      </trkpt>
      <trkpt lat="45.88465" lon="4.61193">
        <ele>308</ele>
        <time>2011-02-19T08:43:19Z</time>
      </trkpt>
      <trkpt lat="45.88475" lon="4.61232">
        <ele>308</ele>
        <time>2011-02-19T08:43:22Z</time>
      </trkpt>
      <trkpt lat="45.88483" lon="4.61258">
        <ele>308</ele>
        <time>2011-02-19T08:43:24Z</time>
      </trkpt>
      <trkpt lat="45.88492" lon="4.61277">
        <ele>307</ele>
        <time>2011-02-19T08:43:26Z</time>
      </trkpt>
      <trkpt lat="45.88498" lon="4.61302">
        <ele>307</ele>
        <time>2011-02-19T08:43:28Z</time>
      </trkpt>
      <trkpt lat="45.88501" lon="4.61339">
        <ele>307</ele>
        <time>2011-02-19T08:43:31Z</time>
      </trkpt>
      <trkpt lat="45.88502" lon="4.61369">
        <ele>307</ele>
        <time>2011-02-19T08:43:34Z</time>
      </trkpt>
      <trkpt lat="45.88508" lon="4.61391">
        <ele>306</ele>
        <time>2011-02-19T08:43:37Z</time>
      </trkpt>
      <trkpt lat="45.88509" lon="4.61416">
        <ele>305</ele>
        <time>2011-02-19T08:43:40Z</time>
      </trkpt>
      <trkpt lat="45.88508" lon="4.61432">
        <ele>305</ele>
        <time>2011-02-19T08:43:42Z</time>
      </trkpt>
      <trkpt lat="45.88512" lon="4.61461">
        <ele>303</ele>
        <time>2011-02-19T08:43:46Z</time>
      </trkpt>
      <trkpt lat="45.88513" lon="4.61477">
        <ele>302</ele>
        <time>2011-02-19T08:43:48Z</time>
      </trkpt>
      <trkpt lat="45.88509" lon="4.61495">
        <ele>301</ele>
        <time>2011-02-19T08:43:50Z</time>
      </trkpt>
      <trkpt lat="45.88493" lon="4.61529">
        <ele>298</ele>
        <time>2011-02-19T08:43:54Z</time>
      </trkpt>
      <trkpt lat="45.8848" lon="4.61553">
        <ele>297</ele>
        <time>2011-02-19T08:43:57Z</time>
      </trkpt>
      <trkpt lat="45.88459" lon="4.61584">
        <ele>295</ele>
        <time>2011-02-19T08:44:00Z</time>
      </trkpt>
      <trkpt lat="45.88431" lon="4.61633">
        <ele>294</ele>
        <time>2011-02-19T08:44:05Z</time>
      </trkpt>
      <trkpt lat="45.88409" lon="4.61676">
        <ele>293</ele>
        <time>2011-02-19T08:44:10Z</time>
      </trkpt>
      <trkpt lat="45.88397" lon="4.61703">
        <ele>292</ele>
        <time>2011-02-19T08:44:14Z</time>
      </trkpt>
      <trkpt lat="45.88391" lon="4.61718">
        <ele>291</ele>
        <time>2011-02-19T08:44:17Z</time>
      </trkpt>
      <trkpt lat="45.88385" lon="4.61732">
        <ele>291</ele>
        <time>2011-02-19T08:44:20Z</time>
      </trkpt>
      <trkpt lat="45.88378" lon="4.61752">
        <ele>291</ele>
        <time>2011-02-19T08:44:24Z</time>
      </trkpt>
      <trkpt lat="45.88372" lon="4.61773">
        <ele>290</ele>
        <time>2011-02-19T08:44:28Z</time>
      </trkpt>
      <trkpt lat="45.88366" lon="4.61793">
        <ele>289</ele>
        <time>2011-02-19T08:44:32Z</time>
      </trkpt>
      <trkpt lat="45.88362" lon="4.61812">
        <ele>288</ele>
        <time>2011-02-19T08:44:36Z</time>
      </trkpt>
      <trkpt lat="45.88359" lon="4.61827">
        <ele>289</ele>
        <time>2011-02-19T08:44:39Z</time>
      </trkpt>
      <trkpt lat="45.88354" lon="4.61841">
        <ele>289</ele>
        <time>2011-02-19T08:44:42Z</time>
      </trkpt>
      <trkpt lat="45.88351" lon="4.61856">
        <ele>288</ele>
        <time>2011-02-19T08:44:45Z</time>
      </trkpt>
      <trkpt lat="45.8835" lon="4.61871">
        <ele>288</ele>
        <time>2011-02-19T08:44:48Z</time>
      </trkpt>
      <trkpt lat="45.88347" lon="4.61887">
        <ele>287</ele>
        <time>2011-02-19T08:44:51Z</time>
      </trkpt>
      <trkpt lat="45.88343" lon="4.61903">
        <ele>286</ele>
        <time>2011-02-19T08:44:54Z</time>
      </trkpt>
      <trkpt lat="45.8834" lon="4.61926">
        <ele>287</ele>
        <time>2011-02-19T08:44:59Z</time>
      </trkpt>
      <trkpt lat="45.8834" lon="4.61933">
        <ele>286</ele>
        <time>2011-02-19T08:45:01Z</time>
      </trkpt>
      <trkpt lat="45.88341" lon="4.6194">
        <ele>286</ele>
        <time>2011-02-19T08:45:03Z</time>
      </trkpt>
      <trkpt lat="45.88346" lon="4.61943">
        <ele>286</ele>
        <time>2011-02-19T08:45:05Z</time>
      </trkpt>
      <trkpt lat="45.88354" lon="4.61945">
        <ele>286</ele>
        <time>2011-02-19T08:45:08Z</time>
      </trkpt>
      <trkpt lat="45.88364" lon="4.61945">
        <ele>285</ele>
        <time>2011-02-19T08:45:11Z</time>
      </trkpt>
      <trkpt lat="45.88374" lon="4.61945">
        <ele>284</ele>
        <time>2011-02-19T08:45:14Z</time>
      </trkpt>
      <trkpt lat="45.88389" lon="4.61949">
        <ele>284</ele>
        <time>2011-02-19T08:45:18Z</time>
      </trkpt>
      <trkpt lat="45.88404" lon="4.61956">
        <ele>284</ele>
        <time>2011-02-19T08:45:21Z</time>
      </trkpt>
      <trkpt lat="45.88422" lon="4.61968">
        <ele>284</ele>
        <time>2011-02-19T08:45:25Z</time>
      </trkpt>
      <trkpt lat="45.88442" lon="4.61984">
        <ele>282</ele>
        <time>2011-02-19T08:45:30Z</time>
      </trkpt>
      <trkpt lat="45.88457" lon="4.61996">
        <ele>280</ele>
        <time>2011-02-19T08:45:34Z</time>
      </trkpt>
      <trkpt lat="45.88471" lon="4.62008">
        <ele>279</ele>
        <time>2011-02-19T08:45:38Z</time>
      </trkpt>
      <trkpt lat="45.88479" lon="4.62015">
        <ele>279</ele>
        <time>2011-02-19T08:45:41Z</time>
      </trkpt>
      <trkpt lat="45.88485" lon="4.62023">
        <ele>278</ele>
        <time>2011-02-19T08:45:44Z</time>
      </trkpt>
      <trkpt lat="45.88481" lon="4.62036">
        <ele>277</ele>
        <time>2011-02-19T08:45:47Z</time>
      </trkpt>
      <trkpt lat="45.88473" lon="4.62048">
        <ele>277</ele>
        <time>2011-02-19T08:45:50Z</time>
      </trkpt>
      <trkpt lat="45.88465" lon="4.62058">
        <ele>277</ele>
        <time>2011-02-19T08:45:53Z</time>
      </trkpt>
      <trkpt lat="45.88452" lon="4.62067">
        <ele>277</ele>
        <time>2011-02-19T08:45:56Z</time>
      </trkpt>
      <trkpt lat="45.88437" lon="4.6208">
        <ele>277</ele>
        <time>2011-02-19T08:46:00Z</time>
      </trkpt>
      <trkpt lat="45.88421" lon="4.62095">
        <ele>276</ele>
        <time>2011-02-19T08:46:05Z</time>
      </trkpt>
      <trkpt lat="45.88408" lon="4.62106">
        <ele>276</ele>
        <time>2011-02-19T08:46:09Z</time>
      </trkpt>
      <trkpt lat="45.88399" lon="4.62114">
        <ele>277</ele>
        <time>2011-02-19T08:46:12Z</time>
      </trkpt>
      <trkpt lat="45.88395" lon="4.6212">
        <ele>277</ele>
        <time>2011-02-19T08:46:14Z</time>
      </trkpt>
      <trkpt lat="45.8839" lon="4.62132">
        <ele>277</ele>
        <time>2011-02-19T08:46:17Z</time>
      </trkpt>
      <trkpt lat="45.88387" lon="4.62149">
        <ele>277</ele>
        <time>2011-02-19T08:46:20Z</time>
      </trkpt>
      <trkpt lat="45.88383" lon="4.62173">
        <ele>276</ele>
        <time>2011-02-19T08:46:24Z</time>
      </trkpt>
      <trkpt lat="45.88379" lon="4.62192">
        <ele>276</ele>
        <time>2011-02-19T08:46:27Z</time>
      </trkpt>
      <trkpt lat="45.88374" lon="4.62216">
        <ele>275</ele>
        <time>2011-02-19T08:46:31Z</time>
      </trkpt>
      <trkpt lat="45.88368" lon="4.62242">
        <ele>274</ele>
        <time>2011-02-19T08:46:36Z</time>
      </trkpt>
      <trkpt lat="45.88364" lon="4.62269">
        <ele>272</ele>
        <time>2011-02-19T08:46:41Z</time>
      </trkpt>
      <trkpt lat="45.88361" lon="4.62284">
        <ele>272</ele>
        <time>2011-02-19T08:46:44Z</time>
      </trkpt>
      <trkpt lat="45.88353" lon="4.62309">
        <ele>271</ele>
        <time>2011-02-19T08:46:49Z</time>
      </trkpt>
      <trkpt lat="45.88347" lon="4.62334">
        <ele>271</ele>
        <time>2011-02-19T08:46:54Z</time>
      </trkpt>
      <trkpt lat="45.8834" lon="4.62358">
        <ele>270</ele>
        <time>2011-02-19T08:46:59Z</time>
      </trkpt>
      <trkpt lat="45.88335" lon="4.62379">
        <ele>270</ele>
        <time>2011-02-19T08:47:03Z</time>
      </trkpt>
      <trkpt lat="45.88328" lon="4.62403">
        <ele>270</ele>
        <time>2011-02-19T08:47:08Z</time>
      </trkpt>
      <trkpt lat="45.88322" lon="4.62422">
        <ele>270</ele>
        <time>2011-02-19T08:47:12Z</time>
      </trkpt>
      <trkpt lat="45.88317" lon="4.62441">
        <ele>269</ele>
        <time>2011-02-19T08:47:16Z</time>
      </trkpt>
      <trkpt lat="45.88312" lon="4.62464">
        <ele>268</ele>
        <time>2011-02-19T08:47:21Z</time>
      </trkpt>
      <trkpt lat="45.88306" lon="4.62486">
        <ele>268</ele>
        <time>2011-02-19T08:47:26Z</time>
      </trkpt>
      <trkpt lat="45.88302" lon="4.62504">
        <ele>269</ele>
        <time>2011-02-19T08:47:30Z</time>
      </trkpt>
      <trkpt lat="45.88295" lon="4.62531">
        <ele>268</ele>
        <time>2011-02-19T08:47:36Z</time>
      </trkpt>
      <trkpt lat="45.8829" lon="4.62554">
        <ele>269</ele>
        <time>2011-02-19T08:47:41Z</time>
      </trkpt>
      <trkpt lat="45.88285" lon="4.62573">
        <ele>269</ele>
        <time>2011-02-19T08:47:45Z</time>
      </trkpt>
      <trkpt lat="45.88278" lon="4.62602">
        <ele>270</ele>
        <time>2011-02-19T08:47:51Z</time>
      </trkpt>
      <trkpt lat="45.88273" lon="4.62621">
        <ele>271</ele>
        <time>2011-02-19T08:47:55Z</time>
      </trkpt>
      <trkpt lat="45.88269" lon="4.6264">
        <ele>272</ele>
        <time>2011-02-19T08:47:59Z</time>
      </trkpt>
      <trkpt lat="45.88266" lon="4.62654">
        <ele>272</ele>
        <time>2011-02-19T08:48:02Z</time>
      </trkpt>
      <trkpt lat="45.88263" lon="4.62673">
        <ele>272</ele>
        <time>2011-02-19T08:48:06Z</time>
      </trkpt>
      <trkpt lat="45.88259" lon="4.62692">
        <ele>272</ele>
        <time>2011-02-19T08:48:10Z</time>
      </trkpt>
      <trkpt lat="45.88256" lon="4.62712">
        <ele>272</ele>
        <time>2011-02-19T08:48:14Z</time>
      </trkpt>
      <trkpt lat="45.88253" lon="4.62731">
        <ele>271</ele>
        <time>2011-02-19T08:48:18Z</time>
      </trkpt>
      <trkpt lat="45.88249" lon="4.62748">
        <ele>271</ele>
        <time>2011-02-19T08:48:22Z</time>
      </trkpt>
      <trkpt lat="45.88247" lon="4.62761">
        <ele>272</ele>
        <time>2011-02-19T08:48:25Z</time>
      </trkpt>
      <trkpt lat="45.88246" lon="4.62778">
        <ele>272</ele>
        <time>2011-02-19T08:48:29Z</time>
      </trkpt>
      <trkpt lat="45.88244" lon="4.62794">
        <ele>272</ele>
        <time>2011-02-19T08:48:33Z</time>
      </trkpt>
      <trkpt lat="45.88241" lon="4.6281">
        <ele>273</ele>
        <time>2011-02-19T08:48:37Z</time>
      </trkpt>
      <trkpt lat="45.8824" lon="4.62823">
        <ele>272</ele>
        <time>2011-02-19T08:48:40Z</time>
      </trkpt>
      <trkpt lat="45.88241" lon="4.62835">
        <ele>272</ele>
        <time>2011-02-19T08:48:43Z</time>
      </trkpt>
      <trkpt lat="45.88245" lon="4.62847">
        <ele>272</ele>
        <time>2011-02-19T08:48:46Z</time>
      </trkpt>
      <trkpt lat="45.88249" lon="4.62858">
        <ele>271</ele>
        <time>2011-02-19T08:48:49Z</time>
      </trkpt>
      <trkpt lat="45.88255" lon="4.62874">
        <ele>271</ele>
        <time>2011-02-19T08:48:53Z</time>
      </trkpt>
      <trkpt lat="45.88261" lon="4.62888">
        <ele>273</ele>
        <time>2011-02-19T08:48:57Z</time>
      </trkpt>
      <trkpt lat="45.88263" lon="4.62896">
        <ele>275</ele>
        <time>2011-02-19T08:49:00Z</time>
      </trkpt>
      <trkpt lat="45.88262" lon="4.62903">
        <ele>275</ele>
        <time>2011-02-19T08:49:03Z</time>
      </trkpt>
      <trkpt lat="45.88256" lon="4.62909">
        <ele>275</ele>
        <time>2011-02-19T08:49:07Z</time>
      </trkpt>
      <trkpt lat="45.8825" lon="4.62914">
        <ele>275</ele>
        <time>2011-02-19T08:49:10Z</time>
      </trkpt>
      <trkpt lat="45.88244" lon="4.62922">
        <ele>275</ele>
        <time>2011-02-19T08:49:14Z</time>
      </trkpt>
      <trkpt lat="45.88238" lon="4.62931">
        <ele>274</ele>
        <time>2011-02-19T08:49:18Z</time>
      </trkpt>
      <trkpt lat="45.88232" lon="4.62938">
        <ele>273</ele>
        <time>2011-02-19T08:49:21Z</time>
      </trkpt>
      <trkpt lat="45.88222" lon="4.62952">
        <ele>274</ele>
        <time>2011-02-19T08:49:27Z</time>
      </trkpt>
      <trkpt lat="45.88215" lon="4.62961">
        <ele>276</ele>
        <time>2011-02-19T08:49:31Z</time>
      </trkpt>
      <trkpt lat="45.88209" lon="4.6297">
        <ele>276</ele>
        <time>2011-02-19T08:49:35Z</time>
      </trkpt>
      <trkpt lat="45.88205" lon="4.62978">
        <ele>274</ele>
        <time>2011-02-19T08:49:39Z</time>
      </trkpt>
      <trkpt lat="45.88198" lon="4.62987">
        <ele>274</ele>
        <time>2011-02-19T08:49:44Z</time>
      </trkpt>
      <trkpt lat="45.88195" lon="4.62994">
        <ele>273</ele>
        <time>2011-02-19T08:49:47Z</time>
      </trkpt>
      <trkpt lat="45.88194" lon="4.62998">
        <ele>273</ele>
        <time>2011-02-19T08:49:49Z</time>
      </trkpt>
      <trkpt lat="45.88195" lon="4.63008">
        <ele>272</ele>
        <time>2011-02-19T08:49:53Z</time>
      </trkpt>
      <trkpt lat="45.88198" lon="4.63014">
        <ele>273</ele>
        <time>2011-02-19T08:49:56Z</time>
      </trkpt>
      <trkpt lat="45.88206" lon="4.63022">
        <ele>273</ele>
        <time>2011-02-19T08:50:00Z</time>
      </trkpt>
      <trkpt lat="45.88216" lon="4.6303">
        <ele>274</ele>
        <time>2011-02-19T08:50:05Z</time>
      </trkpt>
      <trkpt lat="45.8823" lon="4.63045">
        <ele>272</ele>
        <time>2011-02-19T08:50:11Z</time>
      </trkpt>
      <trkpt lat="45.8824" lon="4.63057">
        <ele>273</ele>
        <time>2011-02-19T08:50:14Z</time>
      </trkpt>
      <trkpt lat="45.88251" lon="4.63067">
        <ele>273</ele>
        <time>2011-02-19T08:50:17Z</time>
      </trkpt>
      <trkpt lat="45.88263" lon="4.63075">
        <ele>273</ele>
        <time>2011-02-19T08:50:20Z</time>
      </trkpt>
      <trkpt lat="45.88273" lon="4.6308">
        <ele>273</ele>
        <time>2011-02-19T08:50:23Z</time>
      </trkpt>
      <trkpt lat="45.88287" lon="4.63086">
        <ele>274</ele>
        <time>2011-02-19T08:50:27Z</time>
      </trkpt>
      <trkpt lat="45.88302" lon="4.63094">
        <ele>273</ele>
        <time>2011-02-19T08:50:32Z</time>
      </trkpt>
      <trkpt lat="45.8831" lon="4.63101">
        <ele>274</ele>
        <time>2011-02-19T08:50:35Z</time>
      </trkpt>
      <trkpt lat="45.88318" lon="4.63108">
        <ele>274</ele>
        <time>2011-02-19T08:50:38Z</time>
      </trkpt>
      <trkpt lat="45.88326" lon="4.63117">
        <ele>275</ele>
        <time>2011-02-19T08:50:43Z</time>
      </trkpt>
      <trkpt lat="45.88325" lon="4.63139">
        <ele>275</ele>
        <time>2011-02-19T08:50:53Z</time>
      </trkpt>
      <trkpt lat="45.88321" lon="4.63154">
        <ele>275</ele>
        <time>2011-02-19T08:50:57Z</time>
      </trkpt>
      <trkpt lat="45.88316" lon="4.63177">
        <ele>276</ele>
        <time>2011-02-19T08:51:03Z</time>
      </trkpt>
      <trkpt lat="45.88314" lon="4.63188">
        <ele>276</ele>
        <time>2011-02-19T08:51:06Z</time>
      </trkpt>
      <trkpt lat="45.88315" lon="4.63199">
        <ele>277</ele>
        <time>2011-02-19T08:51:09Z</time>
      </trkpt>
      <trkpt lat="45.88318" lon="4.63207">
        <ele>276</ele>
        <time>2011-02-19T08:51:12Z</time>
      </trkpt>
      <trkpt lat="45.88319" lon="4.63208">
        <ele>276</ele>
        <time>2011-02-19T08:51:13Z</time>
      </trkpt>
      <trkpt lat="45.88345" lon="4.63177">
        <ele>277</ele>
        <time>2011-02-19T08:51:35Z</time>
      </trkpt>
      <trkpt lat="45.88354" lon="4.63163">
        <ele>277</ele>
        <time>2011-02-19T08:51:44Z</time>
      </trkpt>
      <trkpt lat="45.88391" lon="4.63147">
        <ele>276</ele>
        <time>2011-02-19T08:52:24Z</time>
      </trkpt>
      <trkpt lat="45.88443" lon="4.6316">
        <ele>275</ele>
        <time>2011-02-19T08:52:40Z</time>
      </trkpt>
      <trkpt lat="45.88472" lon="4.63166">
        <ele>277</ele>
        <time>2011-02-19T08:52:49Z</time>
      </trkpt>
      <trkpt lat="45.8851" lon="4.63178">
        <ele>277</ele>
        <time>2011-02-19T08:53:05Z</time>
      </trkpt>
      <trkpt lat="45.88519" lon="4.63184">
        <ele>276</ele>
        <time>2011-02-19T08:53:10Z</time>
      </trkpt>
      <trkpt lat="45.88536" lon="4.63216">
        <ele>276</ele>
        <time>2011-02-19T08:53:25Z</time>
      </trkpt>
      <trkpt lat="45.88548" lon="4.63269">
        <ele>278</ele>
        <time>2011-02-19T08:53:35Z</time>
      </trkpt>
      <trkpt lat="45.88552" lon="4.6329">
        <ele>277</ele>
        <time>2011-02-19T08:53:39Z</time>
      </trkpt>
      <trkpt lat="45.88554" lon="4.63304">
        <ele>278</ele>
        <time>2011-02-19T08:53:42Z</time>
      </trkpt>
      <trkpt lat="45.88555" lon="4.63308">
        <ele>278</ele>
        <time>2011-02-19T08:53:43Z</time>
      </trkpt>
      <trkpt lat="45.88554" lon="4.63308">
        <ele>278</ele>
        <time>2011-02-19T08:53:44Z</time>
      </trkpt>
      <trkpt lat="45.88565" lon="4.6333">
        <ele>279</ele>
        <time>2011-02-19T08:53:52Z</time>
      </trkpt>
      <trkpt lat="45.88573" lon="4.63333">
        <ele>280</ele>
        <time>2011-02-19T08:53:57Z</time>
      </trkpt>
      <trkpt lat="45.88572" lon="4.63331">
        <ele>277</ele>
        <time>2011-02-19T08:54:03Z</time>
      </trkpt>
      <trkpt lat="45.88572" lon="4.6333">
        <ele>277</ele>
        <time>2011-02-19T08:54:06Z</time>
      </trkpt>
      <trkpt lat="45.88577" lon="4.63329">
        <ele>278</ele>
        <time>2011-02-19T08:54:14Z</time>
      </trkpt>
      <trkpt lat="45.88587" lon="4.6333">
        <ele>280</ele>
        <time>2011-02-19T08:54:19Z</time>
      </trkpt>
      <trkpt lat="45.88594" lon="4.6333">
        <ele>281</ele>
        <time>2011-02-19T08:54:23Z</time>
      </trkpt>
      <trkpt lat="45.88605" lon="4.63328">
        <ele>281</ele>
        <time>2011-02-19T08:54:28Z</time>
      </trkpt>
      <trkpt lat="45.88613" lon="4.63327">
        <ele>281</ele>
        <time>2011-02-19T08:54:32Z</time>
      </trkpt>
      <trkpt lat="45.88622" lon="4.63327">
        <ele>282</ele>
        <time>2011-02-19T08:54:36Z</time>
      </trkpt>
      <trkpt lat="45.8863" lon="4.63329">
        <ele>282</ele>
        <time>2011-02-19T08:54:40Z</time>
      </trkpt>
      <trkpt lat="45.88639" lon="4.6333">
        <ele>283</ele>
        <time>2011-02-19T08:54:45Z</time>
      </trkpt>
      <trkpt lat="45.88647" lon="4.63331">
        <ele>282</ele>
        <time>2011-02-19T08:54:49Z</time>
      </trkpt>
      <trkpt lat="45.88654" lon="4.63333">
        <ele>283</ele>
        <time>2011-02-19T08:54:53Z</time>
      </trkpt>
      <trkpt lat="45.88662" lon="4.63337">
        <ele>283</ele>
        <time>2011-02-19T08:54:58Z</time>
      </trkpt>
      <trkpt lat="45.88669" lon="4.63339">
        <ele>285</ele>
        <time>2011-02-19T08:55:02Z</time>
      </trkpt>
      <trkpt lat="45.88676" lon="4.63342">
        <ele>286</ele>
        <time>2011-02-19T08:55:06Z</time>
      </trkpt>
      <trkpt lat="45.88683" lon="4.63346">
        <ele>287</ele>
        <time>2011-02-19T08:55:10Z</time>
      </trkpt>
      <trkpt lat="45.8869" lon="4.6335">
        <ele>287</ele>
        <time>2011-02-19T08:55:14Z</time>
      </trkpt>
      <trkpt lat="45.88699" lon="4.63354">
        <ele>288</ele>
        <time>2011-02-19T08:55:19Z</time>
      </trkpt>
      <trkpt lat="45.88706" lon="4.63358">
        <ele>287</ele>
        <time>2011-02-19T08:55:23Z</time>
      </trkpt>
      <trkpt lat="45.88716" lon="4.63364">
        <ele>289</ele>
        <time>2011-02-19T08:55:29Z</time>
      </trkpt>
      <trkpt lat="45.88722" lon="4.63369">
        <ele>291</ele>
        <time>2011-02-19T08:55:33Z</time>
      </trkpt>
      <trkpt lat="45.8873" lon="4.63376">
        <ele>292</ele>
        <time>2011-02-19T08:55:38Z</time>
      </trkpt>
      <trkpt lat="45.88737" lon="4.63383">
        <ele>292</ele>
        <time>2011-02-19T08:55:42Z</time>
      </trkpt>
      <trkpt lat="45.88741" lon="4.63389">
        <ele>292</ele>
        <time>2011-02-19T08:55:45Z</time>
      </trkpt>
      <trkpt lat="45.88747" lon="4.63401">
        <ele>292</ele>
        <time>2011-02-19T08:55:50Z</time>
      </trkpt>
      <trkpt lat="45.88751" lon="4.63411">
        <ele>293</ele>
        <time>2011-02-19T08:55:54Z</time>
      </trkpt>
      <trkpt lat="45.88756" lon="4.63426">
        <ele>294</ele>
        <time>2011-02-19T08:55:59Z</time>
      </trkpt>
      <trkpt lat="45.8876" lon="4.63437">
        <ele>295</ele>
        <time>2011-02-19T08:56:03Z</time>
      </trkpt>
      <trkpt lat="45.88764" lon="4.63447">
        <ele>297</ele>
        <time>2011-02-19T08:56:07Z</time>
      </trkpt>
      <trkpt lat="45.88776" lon="4.63467">
        <ele>299</ele>
        <time>2011-02-19T08:56:19Z</time>
      </trkpt>
      <trkpt lat="45.8878" lon="4.63472">
        <ele>300</ele>
        <time>2011-02-19T08:56:22Z</time>
      </trkpt>
      <trkpt lat="45.88785" lon="4.63476">
        <ele>300</ele>
        <time>2011-02-19T08:56:25Z</time>
      </trkpt>
      <trkpt lat="45.88794" lon="4.63481">
        <ele>300</ele>
        <time>2011-02-19T08:56:30Z</time>
      </trkpt>
      <trkpt lat="45.88815" lon="4.63489">
        <ele>300</ele>
        <time>2011-02-19T08:56:40Z</time>
      </trkpt>
      <trkpt lat="45.88827" lon="4.63489">
        <ele>299</ele>
        <time>2011-02-19T08:56:48Z</time>
      </trkpt>
      <trkpt lat="45.88833" lon="4.63484">
        <ele>300</ele>
        <time>2011-02-19T08:56:52Z</time>
      </trkpt>
      <trkpt lat="45.88852" lon="4.63476">
        <ele>301</ele>
        <time>2011-02-19T08:57:02Z</time>
      </trkpt>
      <trkpt lat="45.88863" lon="4.63471">
        <ele>302</ele>
        <time>2011-02-19T08:57:09Z</time>
      </trkpt>
      <trkpt lat="45.88871" lon="4.63469">
        <ele>300</ele>
        <time>2011-02-19T08:57:16Z</time>
      </trkpt>
      <trkpt lat="45.88882" lon="4.63468">
        <ele>301</ele>
        <time>2011-02-19T08:57:24Z</time>
      </trkpt>
      <trkpt lat="45.8889" lon="4.63468">
        <ele>302</ele>
        <time>2011-02-19T08:57:28Z</time>
      </trkpt>
      <trkpt lat="45.88906" lon="4.63471">
        <ele>303</ele>
        <time>2011-02-19T08:57:39Z</time>
      </trkpt>
      <trkpt lat="45.88912" lon="4.63473">
        <ele>303</ele>
        <time>2011-02-19T08:57:43Z</time>
      </trkpt>
      <trkpt lat="45.88922" lon="4.63476">
        <ele>304</ele>
        <time>2011-02-19T08:57:52Z</time>
      </trkpt>
      <trkpt lat="45.88926" lon="4.63477">
        <ele>305</ele>
        <time>2011-02-19T08:57:56Z</time>
      </trkpt>
      <trkpt lat="45.88938" lon="4.63479">
        <ele>307</ele>
        <time>2011-02-19T08:58:07Z</time>
      </trkpt>
      <trkpt lat="45.88954" lon="4.63484">
        <ele>308</ele>
        <time>2011-02-19T08:58:23Z</time>
      </trkpt>
      <trkpt lat="45.88957" lon="4.63485">
        <ele>308</ele>
        <time>2011-02-19T08:58:27Z</time>
      </trkpt>
      <trkpt lat="45.88962" lon="4.63486">
        <ele>308</ele>
        <time>2011-02-19T08:58:31Z</time>
      </trkpt>
      <trkpt lat="45.88973" lon="4.63489">
        <ele>309</ele>
        <time>2011-02-19T08:58:40Z</time>
      </trkpt>
      <trkpt lat="45.88985" lon="4.6349">
        <ele>311</ele>
        <time>2011-02-19T08:58:49Z</time>
      </trkpt>
      <trkpt lat="45.8899" lon="4.63492">
        <ele>311</ele>
        <time>2011-02-19T08:58:53Z</time>
      </trkpt>
      <trkpt lat="45.88995" lon="4.63494">
        <ele>311</ele>
        <time>2011-02-19T08:58:57Z</time>
      </trkpt>
      <trkpt lat="45.89012" lon="4.63501">
        <ele>312</ele>
        <time>2011-02-19T08:59:12Z</time>
      </trkpt>
      <trkpt lat="45.89022" lon="4.63503">
        <ele>312</ele>
        <time>2011-02-19T08:59:19Z</time>
      </trkpt>
      <trkpt lat="45.89027" lon="4.63505">
        <ele>312</ele>
        <time>2011-02-19T08:59:23Z</time>
      </trkpt>
      <trkpt lat="45.8903" lon="4.63506">
        <ele>312</ele>
        <time>2011-02-19T08:59:26Z</time>
      </trkpt>
      <trkpt lat="45.89036" lon="4.63509">
        <ele>314</ele>
        <time>2011-02-19T08:59:31Z</time>
      </trkpt>
      <trkpt lat="45.89063" lon="4.6352">
        <ele>318</ele>
        <time>2011-02-19T08:59:49Z</time>
      </trkpt>
      <trkpt lat="45.89077" lon="4.63523">
        <ele>321</ele>
        <time>2011-02-19T08:59:58Z</time>
      </trkpt>
      <trkpt lat="45.89082" lon="4.63524">
        <ele>322</ele>
        <time>2011-02-19T09:00:01Z</time>
      </trkpt>
      <trkpt lat="45.89088" lon="4.63526">
        <ele>324</ele>
        <time>2011-02-19T09:00:05Z</time>
      </trkpt>
      <trkpt lat="45.89109" lon="4.63544">
        <ele>328</ele>
        <time>2011-02-19T09:00:24Z</time>
      </trkpt>
      <trkpt lat="45.89152" lon="4.63566">
        <ele>330</ele>
        <time>2011-02-19T09:00:53Z</time>
      </trkpt>
      <trkpt lat="45.89169" lon="4.63572">
        <ele>330</ele>
        <time>2011-02-19T09:01:02Z</time>
      </trkpt>
      <trkpt lat="45.89183" lon="4.63575">
        <ele>331</ele>
        <time>2011-02-19T09:01:08Z</time>
      </trkpt>
      <trkpt lat="45.89199" lon="4.63557">
        <ele>335</ele>
        <time>2011-02-19T09:01:20Z</time>
      </trkpt>
      <trkpt lat="45.89209" lon="4.63532">
        <ele>337</ele>
        <time>2011-02-19T09:01:31Z</time>
      </trkpt>
      <trkpt lat="45.89208" lon="4.63517">
        <ele>339</ele>
        <time>2011-02-19T09:01:37Z</time>
      </trkpt>
      <trkpt lat="45.89203" lon="4.63493">
        <ele>341</ele>
        <time>2011-02-19T09:01:45Z</time>
      </trkpt>
      <trkpt lat="45.89203" lon="4.63483">
        <ele>341</ele>
        <time>2011-02-19T09:01:48Z</time>
      </trkpt>
      <trkpt lat="45.89201" lon="4.6347">
        <ele>342</ele>
        <time>2011-02-19T09:01:51Z</time>
      </trkpt>
      <trkpt lat="45.89201" lon="4.63454">
        <ele>342</ele>
        <time>2011-02-19T09:01:55Z</time>
      </trkpt>
      <trkpt lat="45.89202" lon="4.63439">
        <ele>343</ele>
        <time>2011-02-19T09:01:59Z</time>
      </trkpt>
      <trkpt lat="45.89203" lon="4.63423">
        <ele>342</ele>
        <time>2011-02-19T09:02:04Z</time>
      </trkpt>
      <trkpt lat="45.89204" lon="4.63417">
        <ele>342</ele>
        <time>2011-02-19T09:02:06Z</time>
      </trkpt>
      <trkpt lat="45.89207" lon="4.63376">
        <ele>344</ele>
        <time>2011-02-19T09:02:20Z</time>
      </trkpt>
      <trkpt lat="45.89207" lon="4.63371">
        <ele>345</ele>
        <time>2011-02-19T09:02:22Z</time>
      </trkpt>
      <trkpt lat="45.89202" lon="4.63364">
        <ele>347</ele>
        <time>2011-02-19T09:02:29Z</time>
      </trkpt>
      <trkpt lat="45.89185" lon="4.63356">
        <ele>348</ele>
        <time>2011-02-19T09:02:37Z</time>
      </trkpt>
      <trkpt lat="45.89167" lon="4.63351">
        <ele>349</ele>
        <time>2011-02-19T09:02:44Z</time>
      </trkpt>
      <trkpt lat="45.89155" lon="4.63347">
        <ele>351</ele>
        <time>2011-02-19T09:02:49Z</time>
      </trkpt>
      <trkpt lat="45.89142" lon="4.63345">
        <ele>352</ele>
        <time>2011-02-19T09:02:54Z</time>
      </trkpt>
      <trkpt lat="45.89129" lon="4.6334">
        <ele>356</ele>
        <time>2011-02-19T09:03:00Z</time>
      </trkpt>
      <trkpt lat="45.89123" lon="4.63334">
        <ele>356</ele>
        <time>2011-02-19T09:03:04Z</time>
      </trkpt>
      <trkpt lat="45.8911" lon="4.6331">
        <ele>356</ele>
        <time>2011-02-19T09:03:15Z</time>
      </trkpt>
      <trkpt lat="45.89109" lon="4.63301">
        <ele>356</ele>
        <time>2011-02-19T09:03:17Z</time>
      </trkpt>
      <trkpt lat="45.89108" lon="4.6329">
        <ele>356</ele>
        <time>2011-02-19T09:03:20Z</time>
      </trkpt>
      <trkpt lat="45.89111" lon="4.63268">
        <ele>356</ele>
        <time>2011-02-19T09:03:27Z</time>
      </trkpt>
      <trkpt lat="45.89114" lon="4.63258">
        <ele>357</ele>
        <time>2011-02-19T09:03:30Z</time>
      </trkpt>
      <trkpt lat="45.89115" lon="4.63239">
        <ele>358</ele>
        <time>2011-02-19T09:03:37Z</time>
      </trkpt>
      <trkpt lat="45.89103" lon="4.63215">
        <ele>361</ele>
        <time>2011-02-19T09:03:49Z</time>
      </trkpt>
      <trkpt lat="45.89089" lon="4.63196">
        <ele>359</ele>
        <time>2011-02-19T09:03:56Z</time>
      </trkpt>
      <trkpt lat="45.89082" lon="4.63183">
        <ele>359</ele>
        <time>2011-02-19T09:04:00Z</time>
      </trkpt>
      <trkpt lat="45.89074" lon="4.63169">
        <ele>358</ele>
        <time>2011-02-19T09:04:04Z</time>
      </trkpt>
      <trkpt lat="45.89066" lon="4.63154">
        <ele>358</ele>
        <time>2011-02-19T09:04:08Z</time>
      </trkpt>
      <trkpt lat="45.89057" lon="4.63135">
        <ele>358</ele>
        <time>2011-02-19T09:04:13Z</time>
      </trkpt>
      <trkpt lat="45.89048" lon="4.63115">
        <ele>360</ele>
        <time>2011-02-19T09:04:18Z</time>
      </trkpt>
      <trkpt lat="45.89042" lon="4.63101">
        <ele>360</ele>
        <time>2011-02-19T09:04:21Z</time>
      </trkpt>
      <trkpt lat="45.89033" lon="4.63084">
        <ele>360</ele>
        <time>2011-02-19T09:04:26Z</time>
      </trkpt>
      <trkpt lat="45.89025" lon="4.63071">
        <ele>360</ele>
        <time>2011-02-19T09:04:30Z</time>
      </trkpt>
      <trkpt lat="45.89017" lon="4.63056">
        <ele>362</ele>
        <time>2011-02-19T09:04:34Z</time>
      </trkpt>
      <trkpt lat="45.89006" lon="4.63034">
        <ele>363</ele>
        <time>2011-02-19T09:04:39Z</time>
      </trkpt>
      <trkpt lat="45.88999" lon="4.63018">
        <ele>364</ele>
        <time>2011-02-19T09:04:43Z</time>
      </trkpt>
      <trkpt lat="45.88982" lon="4.6299">
        <ele>364</ele>
        <time>2011-02-19T09:04:49Z</time>
      </trkpt>
      <trkpt lat="45.88969" lon="4.62966">
        <ele>363</ele>
        <time>2011-02-19T09:04:54Z</time>
      </trkpt>
      <trkpt lat="45.88954" lon="4.62936">
        <ele>364</ele>
        <time>2011-02-19T09:05:00Z</time>
      </trkpt>
      <trkpt lat="45.88943" lon="4.6291">
        <ele>363</ele>
        <time>2011-02-19T09:05:05Z</time>
      </trkpt>
      <trkpt lat="45.88929" lon="4.62878">
        <ele>363</ele>
        <time>2011-02-19T09:05:11Z</time>
      </trkpt>
      <trkpt lat="45.88917" lon="4.62856">
        <ele>363</ele>
        <time>2011-02-19T09:05:15Z</time>
      </trkpt>
      <trkpt lat="45.889" lon="4.62826">
        <ele>362</ele>
        <time>2011-02-19T09:05:21Z</time>
      </trkpt>
      <trkpt lat="45.88894" lon="4.62813">
        <ele>362</ele>
        <time>2011-02-19T09:05:24Z</time>
      </trkpt>
      <trkpt lat="45.88889" lon="4.628">
        <ele>361</ele>
        <time>2011-02-19T09:05:27Z</time>
      </trkpt>
      <trkpt lat="45.88886" lon="4.62782">
        <ele>363</ele>
        <time>2011-02-19T09:05:31Z</time>
      </trkpt>
      <trkpt lat="45.88883" lon="4.62769">
        <ele>363</ele>
        <time>2011-02-19T09:05:36Z</time>
      </trkpt>
      <trkpt lat="45.88882" lon="4.62765">
        <ele>362</ele>
        <time>2011-02-19T09:05:38Z</time>
      </trkpt>
      <trkpt lat="45.88891" lon="4.62729">
        <ele>360</ele>
        <time>2011-02-19T09:05:52Z</time>
      </trkpt>
      <trkpt lat="45.88895" lon="4.62717">
        <ele>360</ele>
        <time>2011-02-19T09:05:55Z</time>
      </trkpt>
      <trkpt lat="45.88904" lon="4.62701">
        <ele>360</ele>
        <time>2011-02-19T09:05:59Z</time>
      </trkpt>
      <trkpt lat="45.88909" lon="4.62688">
        <ele>360</ele>
        <time>2011-02-19T09:06:02Z</time>
      </trkpt>
      <trkpt lat="45.88913" lon="4.62671">
        <ele>359</ele>
        <time>2011-02-19T09:06:06Z</time>
      </trkpt>
      <trkpt lat="45.88915" lon="4.62657">
        <ele>359</ele>
        <time>2011-02-19T09:06:09Z</time>
      </trkpt>
      <trkpt lat="45.88918" lon="4.62642">
        <ele>358</ele>
        <time>2011-02-19T09:06:11Z</time>
      </trkpt>
      <trkpt lat="45.88925" lon="4.62628">
        <ele>357</ele>
        <time>2011-02-19T09:06:13Z</time>
      </trkpt>
      <trkpt lat="45.88936" lon="4.62613">
        <ele>356</ele>
        <time>2011-02-19T09:06:16Z</time>
      </trkpt>
      <trkpt lat="45.88947" lon="4.62603">
        <ele>356</ele>
        <time>2011-02-19T09:06:19Z</time>
      </trkpt>
      <trkpt lat="45.88958" lon="4.62596">
        <ele>355</ele>
        <time>2011-02-19T09:06:22Z</time>
      </trkpt>
      <trkpt lat="45.8897" lon="4.62591">
        <ele>355</ele>
        <time>2011-02-19T09:06:25Z</time>
      </trkpt>
      <trkpt lat="45.88981" lon="4.62589">
        <ele>355</ele>
        <time>2011-02-19T09:06:28Z</time>
      </trkpt>
      <trkpt lat="45.89001" lon="4.62592">
        <ele>354</ele>
        <time>2011-02-19T09:06:33Z</time>
      </trkpt>
      <trkpt lat="45.89012" lon="4.62594">
        <ele>353</ele>
        <time>2011-02-19T09:06:36Z</time>
      </trkpt>
      <trkpt lat="45.89023" lon="4.62599">
        <ele>352</ele>
        <time>2011-02-19T09:06:39Z</time>
      </trkpt>
      <trkpt lat="45.89032" lon="4.62599">
        <ele>352</ele>
        <time>2011-02-19T09:06:42Z</time>
      </trkpt>
      <trkpt lat="45.89042" lon="4.62596">
        <ele>352</ele>
        <time>2011-02-19T09:06:45Z</time>
      </trkpt>
      <trkpt lat="45.89053" lon="4.62589">
        <ele>351</ele>
        <time>2011-02-19T09:06:49Z</time>
      </trkpt>
      <trkpt lat="45.89062" lon="4.62583">
        <ele>351</ele>
        <time>2011-02-19T09:06:52Z</time>
      </trkpt>
      <trkpt lat="45.89078" lon="4.62576">
        <ele>352</ele>
        <time>2011-02-19T09:06:57Z</time>
      </trkpt>
      <trkpt lat="45.8909" lon="4.62573">
        <ele>352</ele>
        <time>2011-02-19T09:07:01Z</time>
      </trkpt>
      <trkpt lat="45.89102" lon="4.6257">
        <ele>352</ele>
        <time>2011-02-19T09:07:05Z</time>
      </trkpt>
      <trkpt lat="45.89115" lon="4.62568">
        <ele>353</ele>
        <time>2011-02-19T09:07:09Z</time>
      </trkpt>
      <trkpt lat="45.89124" lon="4.62567">
        <ele>353</ele>
        <time>2011-02-19T09:07:12Z</time>
      </trkpt>
      <trkpt lat="45.89133" lon="4.62568">
        <ele>353</ele>
        <time>2011-02-19T09:07:15Z</time>
      </trkpt>
      <trkpt lat="45.89141" lon="4.6257">
        <ele>352</ele>
        <time>2011-02-19T09:07:18Z</time>
      </trkpt>
      <trkpt lat="45.89153" lon="4.62578">
        <ele>352</ele>
        <time>2011-02-19T09:07:23Z</time>
      </trkpt>
      <trkpt lat="45.89161" lon="4.62585">
        <ele>352</ele>
        <time>2011-02-19T09:07:26Z</time>
      </trkpt>
      <trkpt lat="45.89169" lon="4.62592">
        <ele>352</ele>
        <time>2011-02-19T09:07:29Z</time>
      </trkpt>
      <trkpt lat="45.89176" lon="4.62599">
        <ele>351</ele>
        <time>2011-02-19T09:07:32Z</time>
      </trkpt>
      <trkpt lat="45.89183" lon="4.62607">
        <ele>349</ele>
        <time>2011-02-19T09:07:35Z</time>
      </trkpt>
      <trkpt lat="45.89185" lon="4.62609">
        <ele>349</ele>
        <time>2011-02-19T09:07:36Z</time>
      </trkpt>
      <trkpt lat="45.89195" lon="4.62603">
        <ele>347</ele>
        <time>2011-02-19T09:07:40Z</time>
      </trkpt>
      <trkpt lat="45.892" lon="4.626">
        <ele>347</ele>
        <time>2011-02-19T09:07:42Z</time>
      </trkpt>
      <trkpt lat="45.89202" lon="4.6259">
        <ele>346</ele>
        <time>2011-02-19T09:07:45Z</time>
      </trkpt>
      <trkpt lat="45.892" lon="4.62547">
        <ele>342</ele>
        <time>2011-02-19T09:08:01Z</time>
      </trkpt>
      <trkpt lat="45.89208" lon="4.62504">
        <ele>345</ele>
        <time>2011-02-19T09:08:29Z</time>
      </trkpt>
      <trkpt lat="45.8921" lon="4.62475">
        <ele>344</ele>
        <time>2011-02-19T09:08:41Z</time>
      </trkpt>
      <trkpt lat="45.89218" lon="4.62444">
        <ele>343</ele>
        <time>2011-02-19T09:08:53Z</time>
      </trkpt>
      <trkpt lat="45.8924" lon="4.62389">
        <ele>349</ele>
        <time>2011-02-19T09:09:21Z</time>
      </trkpt>
      <trkpt lat="45.89252" lon="4.62386">
        <ele>350</ele>
        <time>2011-02-19T09:09:28Z</time>
      </trkpt>
      <trkpt lat="45.89272" lon="4.62387">
        <ele>350</ele>
        <time>2011-02-19T09:09:34Z</time>
      </trkpt>
      <trkpt lat="45.89291" lon="4.62388">
        <ele>350</ele>
        <time>2011-02-19T09:09:40Z</time>
      </trkpt>
      <trkpt lat="45.89307" lon="4.6239">
        <ele>350</ele>
        <time>2011-02-19T09:09:45Z</time>
      </trkpt>
      <trkpt lat="45.89324" lon="4.62392">
        <ele>349</ele>
        <time>2011-02-19T09:09:50Z</time>
      </trkpt>
      <trkpt lat="45.89339" lon="4.62395">
        <ele>349</ele>
        <time>2011-02-19T09:09:54Z</time>
      </trkpt>
      <trkpt lat="45.8936" lon="4.62403">
        <ele>349</ele>
        <time>2011-02-19T09:10:02Z</time>
      </trkpt>
      <trkpt lat="45.89373" lon="4.62407">
        <ele>349</ele>
        <time>2011-02-19T09:10:06Z</time>
      </trkpt>
      <trkpt lat="45.89383" lon="4.62411">
        <ele>349</ele>
        <time>2011-02-19T09:10:09Z</time>
      </trkpt>
      <trkpt lat="45.89392" lon="4.62416">
        <ele>350</ele>
        <time>2011-02-19T09:10:12Z</time>
      </trkpt>
      <trkpt lat="45.89399" lon="4.62418">
        <ele>350</ele>
        <time>2011-02-19T09:10:14Z</time>
      </trkpt>
      <trkpt lat="45.89421" lon="4.62431">
        <ele>350</ele>
        <time>2011-02-19T09:10:21Z</time>
      </trkpt>
      <trkpt lat="45.89436" lon="4.6244">
        <ele>352</ele>
        <time>2011-02-19T09:10:26Z</time>
      </trkpt>
      <trkpt lat="45.89452" lon="4.62448">
        <ele>352</ele>
        <time>2011-02-19T09:10:31Z</time>
      </trkpt>
      <trkpt lat="45.89469" lon="4.62457">
        <ele>352</ele>
        <time>2011-02-19T09:10:37Z</time>
      </trkpt>
      <trkpt lat="45.89477" lon="4.62462">
        <ele>352</ele>
        <time>2011-02-19T09:10:40Z</time>
      </trkpt>
      <trkpt lat="45.89487" lon="4.62469">
        <ele>352</ele>
        <time>2011-02-19T09:10:44Z</time>
      </trkpt>
      <trkpt lat="45.89494" lon="4.62477">
        <ele>352</ele>
        <time>2011-02-19T09:10:47Z</time>
      </trkpt>
      <trkpt lat="45.89504" lon="4.62482">
        <ele>352</ele>
        <time>2011-02-19T09:10:51Z</time>
      </trkpt>
      <trkpt lat="45.89513" lon="4.62489">
        <ele>351</ele>
        <time>2011-02-19T09:10:55Z</time>
      </trkpt>
      <trkpt lat="45.8952" lon="4.62493">
        <ele>351</ele>
        <time>2011-02-19T09:10:58Z</time>
      </trkpt>
      <trkpt lat="45.8953" lon="4.625">
        <ele>352</ele>
        <time>2011-02-19T09:11:02Z</time>
      </trkpt>
      <trkpt lat="45.89544" lon="4.6251">
        <ele>353</ele>
        <time>2011-02-19T09:11:08Z</time>
      </trkpt>
      <trkpt lat="45.89556" lon="4.62519">
        <ele>353</ele>
        <time>2011-02-19T09:11:13Z</time>
      </trkpt>
      <trkpt lat="45.89566" lon="4.62525">
        <ele>354</ele>
        <time>2011-02-19T09:11:17Z</time>
      </trkpt>
      <trkpt lat="45.89576" lon="4.62531">
        <ele>355</ele>
        <time>2011-02-19T09:11:22Z</time>
      </trkpt>
      <trkpt lat="45.89591" lon="4.62541">
        <ele>355</ele>
        <time>2011-02-19T09:11:29Z</time>
      </trkpt>
      <trkpt lat="45.89595" lon="4.62544">
        <ele>355</ele>
        <time>2011-02-19T09:11:31Z</time>
      </trkpt>
      <trkpt lat="45.89607" lon="4.62541">
        <ele>355</ele>
        <time>2011-02-19T09:11:36Z</time>
      </trkpt>
      <trkpt lat="45.89611" lon="4.62538">
        <ele>355</ele>
        <time>2011-02-19T09:11:38Z</time>
      </trkpt>
      <trkpt lat="45.8963" lon="4.62504">
        <ele>356</ele>
        <time>2011-02-19T09:11:46Z</time>
      </trkpt>
      <trkpt lat="45.89644" lon="4.62483">
        <ele>355</ele>
        <time>2011-02-19T09:11:50Z</time>
      </trkpt>
      <trkpt lat="45.89659" lon="4.62463">
        <ele>356</ele>
        <time>2011-02-19T09:11:54Z</time>
      </trkpt>
      <trkpt lat="45.89676" lon="4.6244">
        <ele>357</ele>
        <time>2011-02-19T09:11:59Z</time>
      </trkpt>
      <trkpt lat="45.89686" lon="4.62426">
        <ele>357</ele>
        <time>2011-02-19T09:12:02Z</time>
      </trkpt>
      <trkpt lat="45.89701" lon="4.62402">
        <ele>357</ele>
        <time>2011-02-19T09:12:07Z</time>
      </trkpt>
      <trkpt lat="45.89709" lon="4.62389">
        <ele>357</ele>
        <time>2011-02-19T09:12:10Z</time>
      </trkpt>
      <trkpt lat="45.89717" lon="4.62381">
        <ele>357</ele>
        <time>2011-02-19T09:12:14Z</time>
      </trkpt>
      <trkpt lat="45.89726" lon="4.62368">
        <ele>357</ele>
        <time>2011-02-19T09:12:18Z</time>
      </trkpt>
      <trkpt lat="45.89729" lon="4.62365">
        <ele>356</ele>
        <time>2011-02-19T09:12:19Z</time>
      </trkpt>
      <trkpt lat="45.89728" lon="4.62346">
        <ele>355</ele>
        <time>2011-02-19T09:12:22Z</time>
      </trkpt>
      <trkpt lat="45.89718" lon="4.6233">
        <ele>354</ele>
        <time>2011-02-19T09:12:25Z</time>
      </trkpt>
      <trkpt lat="45.89709" lon="4.62314">
        <ele>352</ele>
        <time>2011-02-19T09:12:28Z</time>
      </trkpt>
      <trkpt lat="45.89699" lon="4.62289">
        <ele>349</ele>
        <time>2011-02-19T09:12:32Z</time>
      </trkpt>
      <trkpt lat="45.89692" lon="4.62268">
        <ele>348</ele>
        <time>2011-02-19T09:12:35Z</time>
      </trkpt>
      <trkpt lat="45.89685" lon="4.6224">
        <ele>347</ele>
        <time>2011-02-19T09:12:38Z</time>
      </trkpt>
      <trkpt lat="45.89668" lon="4.62181">
        <ele>347</ele>
        <time>2011-02-19T09:12:43Z</time>
      </trkpt>
      <trkpt lat="45.89654" lon="4.62153">
        <ele>347</ele>
        <time>2011-02-19T09:12:46Z</time>
      </trkpt>
      <trkpt lat="45.89636" lon="4.62136">
        <ele>347</ele>
        <time>2011-02-19T09:12:48Z</time>
      </trkpt>
      <trkpt lat="45.89617" lon="4.62114">
        <ele>347</ele>
        <time>2011-02-19T09:12:50Z</time>
      </trkpt>
      <trkpt lat="45.89598" lon="4.62103">
        <ele>348</ele>
        <time>2011-02-19T09:12:52Z</time>
      </trkpt>
      <trkpt lat="45.89579" lon="4.62106">
        <ele>348</ele>
        <time>2011-02-19T09:12:54Z</time>
      </trkpt>
      <trkpt lat="45.89542" lon="4.62124">
        <ele>347</ele>
        <time>2011-02-19T09:12:58Z</time>
      </trkpt>
      <trkpt lat="45.89506" lon="4.62145">
        <ele>345</ele>
        <time>2011-02-19T09:13:02Z</time>
      </trkpt>
      <trkpt lat="45.89487" lon="4.62152">
        <ele>345</ele>
        <time>2011-02-19T09:13:04Z</time>
      </trkpt>
      <trkpt lat="45.89468" lon="4.62153">
        <ele>345</ele>
        <time>2011-02-19T09:13:06Z</time>
      </trkpt>
      <trkpt lat="45.89443" lon="4.62137">
        <ele>345</ele>
        <time>2011-02-19T09:13:09Z</time>
      </trkpt>
      <trkpt lat="45.8941" lon="4.62116">
        <ele>344</ele>
        <time>2011-02-19T09:13:13Z</time>
      </trkpt>
      <trkpt lat="45.89384" lon="4.621">
        <ele>344</ele>
        <time>2011-02-19T09:13:16Z</time>
      </trkpt>
      <trkpt lat="45.89342" lon="4.62076">
        <ele>342</ele>
        <time>2011-02-19T09:13:21Z</time>
      </trkpt>
      <trkpt lat="45.89315" lon="4.62061">
        <ele>341</ele>
        <time>2011-02-19T09:13:24Z</time>
      </trkpt>
      <trkpt lat="45.89287" lon="4.62051">
        <ele>338</ele>
        <time>2011-02-19T09:13:27Z</time>
      </trkpt>
      <trkpt lat="45.8925" lon="4.62044">
        <ele>336</ele>
        <time>2011-02-19T09:13:31Z</time>
      </trkpt>
      <trkpt lat="45.89205" lon="4.62038">
        <ele>334</ele>
        <time>2011-02-19T09:13:36Z</time>
      </trkpt>
      <trkpt lat="45.89169" lon="4.62033">
        <ele>334</ele>
        <time>2011-02-19T09:13:40Z</time>
      </trkpt>
      <trkpt lat="45.89142" lon="4.6203">
        <ele>333</ele>
        <time>2011-02-19T09:13:43Z</time>
      </trkpt>
      <trkpt lat="45.89116" lon="4.62033">
        <ele>331</ele>
        <time>2011-02-19T09:13:46Z</time>
      </trkpt>
      <trkpt lat="45.8909" lon="4.6204">
        <ele>327</ele>
        <time>2011-02-19T09:13:49Z</time>
      </trkpt>
      <trkpt lat="45.89065" lon="4.62051">
        <ele>324</ele>
        <time>2011-02-19T09:13:52Z</time>
      </trkpt>
      <trkpt lat="45.8904" lon="4.62064">
        <ele>322</ele>
        <time>2011-02-19T09:13:55Z</time>
      </trkpt>
      <trkpt lat="45.89015" lon="4.62076">
        <ele>322</ele>
        <time>2011-02-19T09:13:58Z</time>
      </trkpt>
      <trkpt lat="45.88991" lon="4.6209">
        <ele>321</ele>
        <time>2011-02-19T09:14:01Z</time>
      </trkpt>
      <trkpt lat="45.88976" lon="4.62103">
        <ele>321</ele>
        <time>2011-02-19T09:14:03Z</time>
      </trkpt>
      <trkpt lat="45.88951" lon="4.62119">
        <ele>319</ele>
        <time>2011-02-19T09:14:06Z</time>
      </trkpt>
      <trkpt lat="45.88926" lon="4.62122">
        <ele>317</ele>
        <time>2011-02-19T09:14:09Z</time>
      </trkpt>
      <trkpt lat="45.88912" lon="4.62119">
        <ele>317</ele>
        <time>2011-02-19T09:14:11Z</time>
      </trkpt>
      <trkpt lat="45.8891" lon="4.62109">
        <ele>316</ele>
        <time>2011-02-19T09:14:12Z</time>
      </trkpt>
      <trkpt lat="45.88897" lon="4.62097">
        <ele>313</ele>
        <time>2011-02-19T09:14:15Z</time>
      </trkpt>
      <trkpt lat="45.88896" lon="4.62082">
        <ele>312</ele>
        <time>2011-02-19T09:14:17Z</time>
      </trkpt>
      <trkpt lat="45.88898" lon="4.62061">
        <ele>311</ele>
        <time>2011-02-19T09:14:19Z</time>
      </trkpt>
      <trkpt lat="45.88909" lon="4.62032">
        <ele>307</ele>
        <time>2011-02-19T09:14:22Z</time>
      </trkpt>
      <trkpt lat="45.88923" lon="4.62006">
        <ele>304</ele>
        <time>2011-02-19T09:14:25Z</time>
      </trkpt>
      <trkpt lat="45.8894" lon="4.61982">
        <ele>299</ele>
        <time>2011-02-19T09:14:28Z</time>
      </trkpt>
      <trkpt lat="45.88952" lon="4.61969">
        <ele>297</ele>
        <time>2011-02-19T09:14:30Z</time>
      </trkpt>
      <trkpt lat="45.88964" lon="4.61958">
        <ele>296</ele>
        <time>2011-02-19T09:14:32Z</time>
      </trkpt>
      <trkpt lat="45.88969" lon="4.61952">
        <ele>296</ele>
        <time>2011-02-19T09:14:33Z</time>
      </trkpt>
      <trkpt lat="45.88986" lon="4.6195">
        <ele>295</ele>
        <time>2011-02-19T09:14:36Z</time>
      </trkpt>
      <trkpt lat="45.89001" lon="4.61947">
        <ele>294</ele>
        <time>2011-02-19T09:14:39Z</time>
      </trkpt>
      <trkpt lat="45.89012" lon="4.6194">
        <ele>294</ele>
        <time>2011-02-19T09:14:42Z</time>
      </trkpt>
      <trkpt lat="45.89022" lon="4.61933">
        <ele>293</ele>
        <time>2011-02-19T09:14:45Z</time>
      </trkpt>
      <trkpt lat="45.8904" lon="4.61914">
        <ele>293</ele>
        <time>2011-02-19T09:14:51Z</time>
      </trkpt>
      <trkpt lat="45.89047" lon="4.61906">
        <ele>293</ele>
        <time>2011-02-19T09:14:54Z</time>
      </trkpt>
      <trkpt lat="45.89054" lon="4.61898">
        <ele>292</ele>
        <time>2011-02-19T09:14:58Z</time>
      </trkpt>
      <trkpt lat="45.8906" lon="4.61887">
        <ele>292</ele>
        <time>2011-02-19T09:15:02Z</time>
      </trkpt>
      <trkpt lat="45.89062" lon="4.6188">
        <ele>293</ele>
        <time>2011-02-19T09:15:05Z</time>
      </trkpt>
      <trkpt lat="45.89067" lon="4.61872">
        <ele>293</ele>
        <time>2011-02-19T09:15:09Z</time>
      </trkpt>
      <trkpt lat="45.8908" lon="4.61835">
        <ele>292</ele>
        <time>2011-02-19T09:15:48Z</time>
      </trkpt>
      <trkpt lat="45.89127" lon="4.61789">
        <ele>294</ele>
        <time>2011-02-19T09:16:18Z</time>
      </trkpt>
      <trkpt lat="45.89177" lon="4.61759">
        <ele>297</ele>
        <time>2011-02-19T09:16:46Z</time>
      </trkpt>
      <trkpt lat="45.89204" lon="4.61748">
        <ele>298</ele>
        <time>2011-02-19T09:16:59Z</time>
      </trkpt>
      <trkpt lat="45.89205" lon="4.61707">
        <ele>302</ele>
        <time>2011-02-19T09:17:23Z</time>
      </trkpt>
      <trkpt lat="45.89172" lon="4.61656">
        <ele>306</ele>
        <time>2011-02-19T09:17:42Z</time>
      </trkpt>
      <trkpt lat="45.89172" lon="4.61653">
        <ele>306</ele>
        <time>2011-02-19T09:17:44Z</time>
      </trkpt>
      <trkpt lat="45.89172" lon="4.61652">
        <ele>306</ele>
        <time>2011-02-19T09:17:46Z</time>
      </trkpt>
      <trkpt lat="45.89173" lon="4.61651">
        <ele>306</ele>
        <time>2011-02-19T09:17:51Z</time>
      </trkpt>
      <trkpt lat="45.89173" lon="4.61651">
        <ele>306</ele>
        <time>2011-02-19T09:17:53Z</time>
      </trkpt>
      <trkpt lat="45.89173" lon="4.61652">
        <ele>307</ele>
        <time>2011-02-19T09:17:58Z</time>
      </trkpt>
      <trkpt lat="45.89173" lon="4.61652">
        <ele>310</ele>
        <time>2011-02-19T09:18:04Z</time>
      </trkpt>
    </trkseg>
  </trk>
</gpx>